This is the latest recevied weather packets stored in our database for station/object PY1LEO-13. If no packets are shown the sender has not sent any weather packets the latest 10 day(s).
| Time | Temp. | Humidity | Pressure | Rain* | Wind** | Luminosity | Snow |
|---|---|---|---|---|---|---|---|
| 1777600561 | 27.22° C | 73% | 1019.1 hPa | - | - | - | - |
| 1777600261 | 27.78° C | 70% | 1019 hPa | - | - | - | - |
| 1777599961 | 27.22° C | 71% | 1019 hPa | - | - | - | - |
| 1777599661 | 27.78° C | 69% | 1018.9 hPa | - | - | - | - |
| 1777599361 | 27.78° C | 70% | 1018.9 hPa | - | - | - | - |
| 1777599061 | 28.33° C | 69% | 1018.9 hPa | - | - | - | - |
| 1777598761 | 27.22° C | 71% | 1019 hPa | - | - | - | - |
| 1777598461 | 26.67° C | 75% | 1018.9 hPa | - | - | - | - |
| 1777598161 | 27.22° C | 72% | 1018.9 hPa | - | - | - | - |
| 1777597861 | 27.78° C | 70% | 1018.9 hPa | - | - | - | - |
| 1777597561 | 27.78° C | 69% | 1018.9 hPa | - | - | - | - |
| 1777597261 | 27.22° C | 70% | 1018.9 hPa | - | - | - | - |
| 1777596961 | 28.33° C | 67% | 1018.8 hPa | - | - | - | - |
| 1777596661 | 28.33° C | 67% | 1018.8 hPa | - | - | - | - |
| 1777596361 | 27.22° C | 70% | 1018.9 hPa | - | - | - | - |
| 1777596061 | 27.78° C | 69% | 1018.9 hPa | - | - | - | - |
| 1777595761 | 28.33° C | 68% | 1018.9 hPa | - | - | - | - |
| 1777595461 | 27.78° C | 69% | 1018.9 hPa | - | - | - | - |
| 1777595161 | 27.22° C | 72% | 1018.9 hPa | - | - | - | - |
| 1777594861 | 28.33° C | 68% | 1018.9 hPa | - | - | - | - |
| 1777594561 | 27.78° C | 70% | 1018.9 hPa | - | - | - | - |
| 1777594262 | 26.11° C | 76% | 1018.8 hPa | - | - | - | - |
| 1777593961 | 26.67° C | 71% | 1018.8 hPa | - | - | - | - |
| 1777593661 | 26.67° C | 72% | 1018.8 hPa | - | - | - | - |
| 1777593361 | 26.67° C | 72% | 1018.7 hPa | - | - | - | - |
* Rain since midnight (hover to see other rain measurements)
** Current wind speed in m/s (hover to see current wind gust speed)